Ms Signal — SFWL — position and weather

sailwx.info

Track history (hours):
 
Tides and Currents Weather Stations Pressure Air Temp Water Temp Dewpoint Dewpoint Depression Visibility Wind Speed Wind Dir Waves Ship Positions

Ms Signal

Last reported at 2015-Mar-31 06:33 UTC. Time now 2015-Mar-31 08:28 UTC.
Position N 59°21' E 018°08'.

Length 16 m.

Type: Diving. MMSI: 265648340.

Date/timePositionNaut miles runAvg speedWind from/ knotsBaromVisibWave heightAir tempDewpointWater temp
2015-Mar-31 06:33N 59°21' E 018°08'0 0.0
2015-Mar-30 21:33N 59°21' E 018°08'0 0.0
2015-Mar-30 20:14N 59°21' E 018°08'0 0.0
2015-Mar-30 19:26N 59°21' E 018°08'0 0.0
2015-Mar-30 18:07N 59°21' E 018°08'0 0.0
2015-Mar-30 17:28N 59°21' E 018°08'0 0.0
2015-Mar-30 16:33N 59°21' E 018°08'0 0.1
2015-Mar-30 15:08N 59°21' E 018°08'2 2.6
2015-Mar-30 14:33N 59°19' E 018°08'4 4.0
2015-Mar-30 13:33N 59°19' E 017°60'0 0.0
2015-Mar-30 07:33N 59°19' E 017°60'4 3.8
2015-Mar-30 06:32N 59°19' E 018°07'2 1.7
2015-Mar-30 05:31N 59°21' E 018°08'  
2015-Mar-27 12:21N 59°21' E 018°08'2 2.1
2015-Mar-27 11:31N 59°20' E 018°05'0 0.1
2015-Mar-27 10:31N 59°20' E 018°05'2 1.9
2015-Mar-27 09:33N 59°21' E 018°08'0 0.1
2015-Mar-27 07:31N 59°21' E 018°07'0 0.3
2015-Mar-27 06:29N 59°21' E 018°07'1 0.1
2015-Mar-26 23:30N 59°21' E 018°08'0 0.1
2015-Mar-26 22:32N 59°21' E 018°08'0 0.0
2015-Mar-26 21:08N 59°21' E 018°08'0 0.0
2015-Mar-26 20:32N 59°21' E 018°08'0 0.0
2015-Mar-26 18:14N 59°21' E 018°08'0 0.0
2015-Mar-26 16:30N 59°21' E 018°08'0 0.1
2015-Mar-26 15:30N 59°21' E 018°08'0 0.1
2015-Mar-26 14:34N 59°21' E 018°08'0 0.1
2015-Mar-26 13:22N 59°21' E 018°08'0 0.0
2015-Mar-26 11:07N 59°21' E 018°08'0 0.6
2015-Mar-26 10:33N 59°21' E 018°07'0 0.0
2015-Mar-25 21:14N 59°21' E 018°08'3 3.7
2015-Mar-25 20:32N 59°20' E 018°13'3 0.1
2015-Mar-23 21:32N 59°21' E 018°08'0 0.1
2015-Mar-23 20:33N 59°21' E 018°08'0 0.1
2015-Mar-23 19:33N 59°21' E 018°08'0 0.0
2015-Mar-23 17:31N 59°21' E 018°08'0 0.0
2015-Mar-23 16:31N 59°21' E 018°08'0 0.0
2015-Mar-23 15:33N 59°21' E 018°08'0 0.1
2015-Mar-23 14:33N 59°21' E 018°08'2 1.7
2015-Mar-23 13:33N 59°19' E 018°06'2 1.5
2015-Mar-23 12:21N 59°21' E 018°09'3 0.9
2015-Mar-23 09:20N 59°22' E 018°05'1 0.4
2015-Mar-23 08:07N 59°23' E 018°04'0 0.1
2015-Mar-23 07:33N 59°23' E 018°04'3 2.1
2015-Mar-23 06:13N 59°21' E 018°08'0 0.0
2015-Mar-22 13:25N 59°21' E 018°08'0 0.0
2015-Mar-22 12:33N 59°21' E 018°08'0 0.1
2015-Mar-22 11:33N 59°21' E 018°08'0 0.0
2015-Mar-22 10:28N 59°21' E 018°08'0 0.0
2015-Mar-22 09:33N 59°21' E 018°08'0 0.0
2015-Mar-22 08:30N 59°21' E 018°08'  
Track history (hours):
 
Tides and Currents Weather Stations Pressure Air Temp Water Temp Dewpoint Dewpoint Depression Visibility Wind Speed Wind Dir Waves Ship Positions

Ms Signal

Last reported at 2015-Mar-31 06:33 UTC. Time now 2015-Mar-31 08:28 UTC.
Position N 59°21' E 018°08'.

Length 16 m.

Type: Diving. MMSI: 265648340.

Date/timePositionNaut miles runAvg speedWind from/ knotsBaromVisibWave heightAir tempDewpointWater temp
2015-Mar-31 06:33N 59°21' E 018°08'0 0.0
2015-Mar-30 21:33N 59°21' E 018°08'0 0.0
2015-Mar-30 20:14N 59°21' E 018°08'0 0.0
2015-Mar-30 19:26N 59°21' E 018°08'0 0.0
2015-Mar-30 18:07N 59°21' E 018°08'0 0.0
2015-Mar-30 17:28N 59°21' E 018°08'0 0.0
2015-Mar-30 16:33N 59°21' E 018°08'0 0.1
2015-Mar-30 15:08N 59°21' E 018°08'2 2.6
2015-Mar-30 14:33N 59°19' E 018°08'4 4.0
2015-Mar-30 13:33N 59°19' E 017°60'0 0.0
2015-Mar-30 07:33N 59°19' E 017°60'4 3.8
2015-Mar-30 06:32N 59°19' E 018°07'2 1.7
2015-Mar-30 05:31N 59°21' E 018°08'  
2015-Mar-27 12:21N 59°21' E 018°08'2 2.1
2015-Mar-27 11:31N 59°20' E 018°05'0 0.1
2015-Mar-27 10:31N 59°20' E 018°05'2 1.9
2015-Mar-27 09:33N 59°21' E 018°08'0 0.1
2015-Mar-27 07:31N 59°21' E 018°07'0 0.3
2015-Mar-27 06:29N 59°21' E 018°07'1 0.1
2015-Mar-26 23:30N 59°21' E 018°08'0 0.1
2015-Mar-26 22:32N 59°21' E 018°08'0 0.0
2015-Mar-26 21:08N 59°21' E 018°08'0 0.0
2015-Mar-26 20:32N 59°21' E 018°08'0 0.0
2015-Mar-26 18:14N 59°21' E 018°08'0 0.0
2015-Mar-26 16:30N 59°21' E 018°08'0 0.1
2015-Mar-26 15:30N 59°21' E 018°08'0 0.1
2015-Mar-26 14:34N 59°21' E 018°08'0 0.1
2015-Mar-26 13:22N 59°21' E 018°08'0 0.0
2015-Mar-26 11:07N 59°21' E 018°08'0 0.6
2015-Mar-26 10:33N 59°21' E 018°07'0 0.0
2015-Mar-25 21:14N 59°21' E 018°08'3 3.7
2015-Mar-25 20:32N 59°20' E 018°13'3 0.1
2015-Mar-23 21:32N 59°21' E 018°08'0 0.1
2015-Mar-23 20:33N 59°21' E 018°08'0 0.1
2015-Mar-23 19:33N 59°21' E 018°08'0 0.0
2015-Mar-23 17:31N 59°21' E 018°08'0 0.0
2015-Mar-23 16:31N 59°21' E 018°08'0 0.0
2015-Mar-23 15:33N 59°21' E 018°08'0 0.1
2015-Mar-23 14:33N 59°21' E 018°08'2 1.7
2015-Mar-23 13:33N 59°19' E 018°06'2 1.5
2015-Mar-23 12:21N 59°21' E 018°09'3 0.9
2015-Mar-23 09:20N 59°22' E 018°05'1 0.4
2015-Mar-23 08:07N 59°23' E 018°04'0 0.1
2015-Mar-23 07:33N 59°23' E 018°04'3 2.1
2015-Mar-23 06:13N 59°21' E 018°08'0 0.0
2015-Mar-22 13:25N 59°21' E 018°08'0 0.0
2015-Mar-22 12:33N 59°21' E 018°08'0 0.1
2015-Mar-22 11:33N 59°21' E 018°08'0 0.0
2015-Mar-22 10:28N 59°21' E 018°08'0 0.0
2015-Mar-22 09:33N 59°21' E 018°08'0 0.0
2015-Mar-22 08:30N 59°21' E 018°08'  

Dump ship's entire track history